Aérodrome :
LOGIN :

S'inscrire | Disclaimer

   EN    FR    IT 

 










Légende :    VFR   VFR Marginal   IFR   IFR Intensif   IFR Très Intensif
Visi : 
Plafond : 
>= 8 km
>= 3000ft
5 à 8 km
1000 à 3000 ft
1500m à 5 km
500 à 1000 ft
800 à 1500m
200 à 500 ft
< 800m
< 200 ft
Symboles :   Orages  Brouillard  Fortes neiges  Fortes précipitations  Vent > 20 kt
SIGMETs :   Divers  Orages  Givrage  Turbulence  Onde Orograph.  Cendres Volcan.






- Altitude de l'aérodrome : 218 ft
- Code IATA : LBG


LFPB - Paris / Le Bourget

DERNIER METAR :
  • 231030Z AUTO 23014KT 200V280 9999 OVC020 13/09 Q1024 TEMPO BKN008 BECMG 23015G25KT

METARs EXPIRÉS :
  • 231000Z AUTO 22016KT 190V250 9999 OVC019 13/08 Q1023 TEMPO BKN008 BECMG 23015G25KT
  • 230930Z AUTO 20017KT 9999 BKN018 OVC023 12/08 Q1023 TEMPO BKN008 BECMG 23015G25KT
  • 230900Z AUTO 21016KT 9999 OVC016 12/08 Q1023 TEMPO BKN008 BECMG 23015G25KT
  • 230830Z AUTO 21015KT 180V240 9999 OVC015 11/08 Q1023 TEMPO BKN008 BECMG 23015G25KT
  • 230800Z AUTO 21013KT 190V250 9999 BKN013 OVC018 11/08 Q1024 TEMPO BKN008 BECMG 23015G25KT

TAF TAF LFPB
Valide du 23 à 06h jusqu'au 24 à 06h UTC


230500Z 2306/2406 23015G25KT 9999 BKN012
TEMPO 2306/2315 BKN008
TEMPO 2316/2406 BKN006
PROB40
TEMPO 2317/2406 3000 RADZ BKN003
BECMG 2318/2320 28010KT
BECMG 2403/2405 22010KT
ATIS : +33 1 48 62 43 92



MET'MAP, la Météo Aéronautique d'un coup d'oeil ! - Copyright ORBIFLY Décembre 2007 - Disclaimer

ORBIFLY MET'MAP TEAM :

Programmation & Développement : Alexandra Zaïnal
Sur une idée originale de : Baudouin d'Aumeries
Assistance à la programmation : Marc-Olivier Méhu
Soutien technique & logistique : Manuel Goepfert

Contact : metmap@orbifly.com




SOURCES & CREDITS :

   NOAA